sensor_id;sensor_type;location;lat;lon;timestamp;P1;durP1;ratioP1;P2;durP2;ratioP2
75342;SDS011;63936;51.006;13.764;2024-03-23T00:54:02;7;;;3;;
75342;SDS011;63936;51.006;13.764;2024-03-23T00:56:01;8;;;4;;
75342;SDS011;63936;51.006;13.764;2024-03-23T00:58:01;8;;;4;;
75342;SDS011;63936;51.006;13.764;2024-03-23T01:00:01;9;;;4;;
75342;SDS011;63936;51.006;13.764;2024-03-23T01:02:03;10;;;3;;
75342;SDS011;63936;51.006;13.764;2024-03-23T01:04:02;11;;;4;;
75342;SDS011;63936;51.006;13.764;2024-03-23T01:06:02;6;;;3;;
75342;SDS011;63936;51.006;13.764;2024-03-23T01:08:02;6;;;3;;
75342;SDS011;63936;51.006;13.764;2024-03-23T01:10:04;6;;;3;;
75342;SDS011;63936;51.006;13.764;2024-03-23T01:12:02;7;;;4;;
75342;SDS011;63936;51.006;13.764;2024-03-23T01:14:01;7;;;3;;
75342;SDS011;63936;51.006;13.764;2024-03-23T01:16:02;7;;;3;;
75342;SDS011;63936;51.006;13.764;2024-03-23T01:18:02;7;;;3;;
75342;SDS011;63936;51.006;13.764;2024-03-23T01:20:03;8;;;4;;
75342;SDS011;63936;51.006;13.764;2024-03-23T01:22:02;8;;;4;;
75342;SDS011;63936;51.006;13.764;2024-03-23T01:24:03;7;;;4;;
75342;SDS011;63936;51.006;13.764;2024-03-23T01:26:03;8;;;3;;
75342;SDS011;63936;51.006;13.764;2024-03-23T01:28:03;9;;;4;;
75342;SDS011;63936;51.006;13.764;2024-03-23T01:30:08;9;;;4;;
75342;SDS011;63936;51.006;13.764;2024-03-23T01:32:02;9;;;5;;
75342;SDS011;63936;51.006;13.764;2024-03-23T01:34:01;7;;;4;;
75342;SDS011;63936;51.006;13.764;2024-03-23T01:36:03;9;;;4;;
75342;SDS011;63936;51.006;13.764;2024-03-23T01:38:03;8;;;4;;
75342;SDS011;63936;51.006;13.764;2024-03-23T01:40:06;9;;;5;;
75342;SDS011;63936;51.006;13.764;2024-03-23T01:42:02;8;;;4;;
75342;SDS011;63936;51.006;13.764;2024-03-23T01:44:05;8;;;4;;
75342;SDS011;63936;51.006;13.764;2024-03-23T01:46:02;7;;;3;;
75342;SDS011;63936;51.006;13.764;2024-03-23T01:48:02;9;;;4;;
75342;SDS011;63936;51.006;13.764;2024-03-23T01:50:05;9;;;4;;
75342;SDS011;63936;51.006;13.764;2024-03-23T01:52:04;10;;;4;;
75342;SDS011;63936;51.006;13.764;2024-03-23T01:54:01;10;;;4;;
75342;SDS011;63936;51.006;13.764;2024-03-23T01:56:01;10;;;4;;
75342;SDS011;63936;51.006;13.764;2024-03-23T01:58:01;8;;;4;;
75342;SDS011;63936;51.006;13.764;2024-03-23T02:00:02;9;;;4;;
75342;SDS011;63936;51.006;13.764;2024-03-23T02:02:01;12;;;5;;
75342;SDS011;63936;51.006;13.764;2024-03-23T02:04:01;11;;;5;;
75342;SDS011;63936;51.006;13.764;2024-03-23T02:06:02;10;;;5;;
75342;SDS011;63936;51.006;13.764;2024-03-23T02:08:02;10;;;5;;
75342;SDS011;63936;51.006;13.764;2024-03-23T02:10:01;10;;;5;;
75342;SDS011;63936;51.006;13.764;2024-03-23T02:12:01;10;;;5;;
75342;SDS011;63936;51.006;13.764;2024-03-23T02:14:01;11;;;5;;
75342;SDS011;63936;51.006;13.764;2024-03-23T02:16:01;13;;;7;;
75342;SDS011;63936;51.006;13.764;2024-03-23T02:18:01;13;;;6;;
75342;SDS011;63936;51.006;13.764;2024-03-23T02:20:02;11;;;5;;
75342;SDS011;63936;51.006;13.764;2024-03-23T02:22:01;10;;;5;;
75342;SDS011;63936;51.006;13.764;2024-03-23T02:24:01;11;;;5;;
75342;SDS011;63936;51.006;13.764;2024-03-23T02:26:01;11;;;5;;
75342;SDS011;63936;51.006;13.764;2024-03-23T02:28:01;12;;;5;;
75342;SDS011;63936;51.006;13.764;2024-03-23T02:30:02;11;;;5;;
75342;SDS011;63936;51.006;13.764;2024-03-23T02:32:02;12;;;6;;
75342;SDS011;63936;51.006;13.764;2024-03-23T02:34:02;10;;;6;;
75342;SDS011;63936;51.006;13.764;2024-03-23T02:36:02;14;;;8;;
75342;SDS011;63936;51.006;13.764;2024-03-23T02:38:02;16;;;9;;
75342;SDS011;63936;51.006;13.764;2024-03-23T02:40:02;15;;;7;;
75342;SDS011;63936;51.006;13.764;2024-03-23T02:42:01;14;;;6;;
75342;SDS011;63936;51.006;13.764;2024-03-23T02:44:01;17;;;8;;
75342;SDS011;63936;51.006;13.764;2024-03-23T02:46:01;12;;;7;;
75342;SDS011;63936;51.006;13.764;2024-03-23T02:48:01;12;;;6;;
75342;SDS011;63936;51.006;13.764;2024-03-23T02:50:02;14;;;6;;
75342;SDS011;63936;51.006;13.764;2024-03-23T02:52:02;17;;;8;;
75342;SDS011;63936;51.006;13.764;2024-03-23T02:54:02;12;;;5;;
75342;SDS011;63936;51.006;13.764;2024-03-23T02:56:01;12;;;6;;
75342;SDS011;63936;51.006;13.764;2024-03-23T02:58:01;10;;;5;;
75342;SDS011;63936;51.006;13.764;2024-03-23T03:00:02;10;;;5;;
75342;SDS011;63936;51.006;13.764;2024-03-23T03:02:01;15;;;6;;
75342;SDS011;63936;51.006;13.764;2024-03-23T03:04:01;14;;;6;;
75342;SDS011;63936;51.006;13.764;2024-03-23T03:06:01;10;;;5;;
75342;SDS011;63936;51.006;13.764;2024-03-23T03:08:01;11;;;6;;
75342;SDS011;63936;51.006;13.764;2024-03-23T03:10:02;14;;;6;;
75342;SDS011;63936;51.006;13.764;2024-03-23T03:12:01;11;;;6;;
75342;SDS011;63936;51.006;13.764;2024-03-23T03:14:01;11;;;6;;
75342;SDS011;63936;51.006;13.764;2024-03-23T03:16:02;12;;;5;;
75342;SDS011;63936;51.006;13.764;2024-03-23T03:18:02;13;;;5;;
75342;SDS011;63936;51.006;13.764;2024-03-23T03:20:01;12;;;5;;
75342;SDS011;63936;51.006;13.764;2024-03-23T03:22:02;12;;;6;;
75342;SDS011;63936;51.006;13.764;2024-03-23T03:24:02;15;;;8;;
75342;SDS011;63936;51.006;13.764;2024-03-23T03:26:01;13;;;7;;
75342;SDS011;63936;51.006;13.764;2024-03-23T03:28:01;11;;;6;;
75342;SDS011;63936;51.006;13.764;2024-03-23T03:30:02;12;;;5;;
75342;SDS011;63936;51.006;13.764;2024-03-23T03:32:02;12;;;5;;
75342;SDS011;63936;51.006;13.764;2024-03-23T03:34:01;12;;;6;;
75342;SDS011;63936;51.006;13.764;2024-03-23T03:36:02;12;;;6;;
75342;SDS011;63936;51.006;13.764;2024-03-23T03:38:01;12;;;6;;
75342;SDS011;63936;51.006;13.764;2024-03-23T03:40:01;12;;;6;;
75342;SDS011;63936;51.006;13.764;2024-03-23T03:42:01;13;;;6;;
75342;SDS011;63936;51.006;13.764;2024-03-23T03:44:01;12;;;6;;
75342;SDS011;63936;51.006;13.764;2024-03-23T03:46:01;10;;;5;;
75342;SDS011;63936;51.006;13.764;2024-03-23T03:48:01;11;;;5;;
75342;SDS011;63936;51.006;13.764;2024-03-23T03:50:02;13;;;7;;
75342;SDS011;63936;51.006;13.764;2024-03-23T03:52:01;15;;;8;;
75342;SDS011;63936;51.006;13.764;2024-03-23T03:54:01;11;;;6;;
75342;SDS011;63936;51.006;13.764;2024-03-23T03:56:02;12;;;6;;
75342;SDS011;63936;51.006;13.764;2024-03-23T03:58:02;10;;;5;;
75342;SDS011;63936;51.006;13.764;2024-03-23T04:00:02;11;;;5;;
75342;SDS011;63936;51.006;13.764;2024-03-23T04:02:01;11;;;5;;
75342;SDS011;63936;51.006;13.764;2024-03-23T04:04:01;12;;;5;;
75342;SDS011;63936;51.006;13.764;2024-03-23T04:06:01;12;;;6;;
75342;SDS011;63936;51.006;13.764;2024-03-23T04:08:01;13;;;6;;
75342;SDS011;63936;51.006;13.764;2024-03-23T04:10:02;14;;;5;;
75342;SDS011;63936;51.006;13.764;2024-03-23T04:12:01;16;;;7;;
75342;SDS011;63936;51.006;13.764;2024-03-23T04:14:01;10;;;5;;
75342;SDS011;63936;51.006;13.764;2024-03-23T04:16:02;12;;;5;;
75342;SDS011;63936;51.006;13.764;2024-03-23T04:18:02;8;;;3;;
75342;SDS011;63936;51.006;13.764;2024-03-23T04:20:03;9;;;4;;
75342;SDS011;63936;51.006;13.764;2024-03-23T04:22:01;9;;;4;;
75342;SDS011;63936;51.006;13.764;2024-03-23T04:24:01;8;;;4;;
75342;SDS011;63936;51.006;13.764;2024-03-23T04:26:03;10;;;5;;
75342;SDS011;63936;51.006;13.764;2024-03-23T04:28:01;10;;;5;;
75342;SDS011;63936;51.006;13.764;2024-03-23T04:30:02;9;;;4;;
75342;SDS011;63936;51.006;13.764;2024-03-23T04:32:02;12;;;6;;
75342;SDS011;63936;51.006;13.764;2024-03-23T04:34:02;12;;;6;;
75342;SDS011;63936;51.006;13.764;2024-03-23T04:36:02;9;;;5;;
75342;SDS011;63936;51.006;13.764;2024-03-23T04:38:02;6;;;3;;
75342;SDS011;63936;51.006;13.764;2024-03-23T04:40:01;8;;;3;;
75342;SDS011;63936;51.006;13.764;2024-03-23T04:42:01;14;;;6;;
75342;SDS011;63936;51.006;13.764;2024-03-23T04:44:01;15;;;6;;
75342;SDS011;63936;51.006;13.764;2024-03-23T04:46:01;11;;;4;;
75342;SDS011;63936;51.006;13.764;2024-03-23T04:48:01;10;;;4;;
75342;SDS011;63936;51.006;13.764;2024-03-23T04:50:02;11;;;5;;
75342;SDS011;63936;51.006;13.764;2024-03-23T04:52:02;11;;;5;;
75342;SDS011;63936;51.006;13.764;2024-03-23T04:54:02;11;;;5;;
75342;SDS011;63936;51.006;13.764;2024-03-23T04:56:01;10;;;4;;
75342;SDS011;63936;51.006;13.764;2024-03-23T04:58:01;9;;;5;;
75342;SDS011;63936;51.006;13.764;2024-03-23T05:00:02;10;;;5;;
75342;SDS011;63936;51.006;13.764;2024-03-23T05:02:02;10;;;5;;
75342;SDS011;63936;51.006;13.764;2024-03-23T05:04:02;12;;;5;;
75342;SDS011;63936;51.006;13.764;2024-03-23T05:06:02;10;;;5;;
75342;SDS011;63936;51.006;13.764;2024-03-23T05:08:02;8;;;5;;
75342;SDS011;63936;51.006;13.764;2024-03-23T05:10:03;11;;;5;;
75342;SDS011;63936;51.006;13.764;2024-03-23T05:12:02;13;;;6;;
75342;SDS011;63936;51.006;13.764;2024-03-23T05:14:02;11;;;5;;
75342;SDS011;63936;51.006;13.764;2024-03-23T05:16:01;14;;;6;;
75342;SDS011;63936;51.006;13.764;2024-03-23T05:18:02;11;;;4;;
75342;SDS011;63936;51.006;13.764;2024-03-23T05:20:03;11;;;4;;
75342;SDS011;63936;51.006;13.764;2024-03-23T05:22:03;8;;;5;;
75342;SDS011;63936;51.006;13.764;2024-03-23T05:24:02;9;;;5;;
75342;SDS011;63936;51.006;13.764;2024-03-23T05:26:02;10;;;5;;
75342;SDS011;63936;51.006;13.764;2024-03-23T05:28:01;10;;;5;;
75342;SDS011;63936;51.006;13.764;2024-03-23T05:30:03;10;;;5;;
75342;SDS011;63936;51.006;13.764;2024-03-23T05:32:02;11;;;6;;
75342;SDS011;63936;51.006;13.764;2024-03-23T05:34:01;10;;;5;;
75342;SDS011;63936;51.006;13.764;2024-03-23T05:36:03;10;;;5;;
75342;SDS011;63936;51.006;13.764;2024-03-23T05:38:02;9;;;4;;
75342;SDS011;63936;51.006;13.764;2024-03-23T05:40:04;10;;;5;;
75342;SDS011;63936;51.006;13.764;2024-03-23T05:42:02;8;;;5;;
75342;SDS011;63936;51.006;13.764;2024-03-23T05:44:02;9;;;5;;
75342;SDS011;63936;51.006;13.764;2024-03-23T05:46:01;11;;;5;;
75342;SDS011;63936;51.006;13.764;2024-03-23T05:48:02;13;;;6;;
75342;SDS011;63936;51.006;13.764;2024-03-23T05:50:03;11;;;5;;
75342;SDS011;63936;51.006;13.764;2024-03-23T05:52:02;10;;;4;;
75342;SDS011;63936;51.006;13.764;2024-03-23T05:54:01;12;;;5;;
75342;SDS011;63936;51.006;13.764;2024-03-23T05:56:02;12;;;6;;
75342;SDS011;63936;51.006;13.764;2024-03-23T05:58:02;9;;;5;;
75342;SDS011;63936;51.006;13.764;2024-03-23T06:00:05;10;;;5;;
75342;SDS011;63936;51.006;13.764;2024-03-23T06:02:02;9;;;4;;
75342;SDS011;63936;51.006;13.764;2024-03-23T06:04:02;9;;;5;;
75342;SDS011;63936;51.006;13.764;2024-03-23T06:06:02;9;;;5;;
75342;SDS011;63936;51.006;13.764;2024-03-23T06:08:02;11;;;5;;
75342;SDS011;63936;51.006;13.764;2024-03-23T06:10:03;10;;;5;;
75342;SDS011;63936;51.006;13.764;2024-03-23T06:12:02;11;;;5;;
75342;SDS011;63936;51.006;13.764;2024-03-23T06:14:02;11;;;4;;
75342;SDS011;63936;51.006;13.764;2024-03-23T06:16:02;11;;;5;;
75342;SDS011;63936;51.006;13.764;2024-03-23T06:18:02;9;;;4;;
75342;SDS011;63936;51.006;13.764;2024-03-23T06:20:03;9;;;5;;
75342;SDS011;63936;51.006;13.764;2024-03-23T06:22:02;9;;;5;;
75342;SDS011;63936;51.006;13.764;2024-03-23T06:24:02;9;;;4;;
75342;SDS011;63936;51.006;13.764;2024-03-23T06:26:02;12;;;5;;
75342;SDS011;63936;51.006;13.764;2024-03-23T06:28:02;11;;;5;;
75342;SDS011;63936;51.006;13.764;2024-03-23T06:30:05;7;;;3;;
75342;SDS011;63936;51.006;13.764;2024-03-23T06:32:02;9;;;4;;
75342;SDS011;63936;51.006;13.764;2024-03-23T06:34:01;11;;;6;;
75342;SDS011;63936;51.006;13.764;2024-03-23T06:36:01;10;;;5;;
75342;SDS011;63936;51.006;13.764;2024-03-23T06:38:01;6;;;2;;
75342;SDS011;63936;51.006;13.764;2024-03-23T06:40:05;8;;;3;;
75342;SDS011;63936;51.006;13.764;2024-03-23T06:42:02;10;;;4;;
75342;SDS011;63936;51.006;13.764;2024-03-23T06:44:02;11;;;5;;
75342;SDS011;63936;51.006;13.764;2024-03-23T06:46:02;10;;;5;;
75342;SDS011;63936;51.006;13.764;2024-03-23T06:48:02;9;;;4;;
75342;SDS011;63936;51.006;13.764;2024-03-23T06:50:05;9;;;4;;
75342;SDS011;63936;51.006;13.764;2024-03-23T06:52:01;10;;;5;;
75342;SDS011;63936;51.006;13.764;2024-03-23T06:54:02;11;;;5;;
75342;SDS011;63936;51.006;13.764;2024-03-23T06:56:02;13;;;6;;
75342;SDS011;63936;51.006;13.764;2024-03-23T06:58:01;11;;;5;;
75342;SDS011;63936;51.006;13.764;2024-03-23T07:00:03;10;;;5;;
75342;SDS011;63936;51.006;13.764;2024-03-23T07:02:01;11;;;5;;
75342;SDS011;63936;51.006;13.764;2024-03-23T07:04:01;11;;;5;;
75342;SDS011;63936;51.006;13.764;2024-03-23T07:06:02;11;;;6;;
75342;SDS011;63936;51.006;13.764;2024-03-23T07:08:02;11;;;5;;
75342;SDS011;63936;51.006;13.764;2024-03-23T07:10:05;10;;;5;;
75342;SDS011;63936;51.006;13.764;2024-03-23T07:12:01;10;;;5;;
75342;SDS011;63936;51.006;13.764;2024-03-23T07:14:02;8;;;4;;
75342;SDS011;63936;51.006;13.764;2024-03-23T07:16:01;10;;;5;;
75342;SDS011;63936;51.006;13.764;2024-03-23T07:18:01;10;;;5;;
75342;SDS011;63936;51.006;13.764;2024-03-23T07:20:03;10;;;4;;
75342;SDS011;63936;51.006;13.764;2024-03-23T07:22:01;12;;;5;;
75342;SDS011;63936;51.006;13.764;2024-03-23T07:24:01;12;;;5;;
75342;SDS011;63936;51.006;13.764;2024-03-23T07:26:02;14;;;5;;
75342;SDS011;63936;51.006;13.764;2024-03-23T07:28:01;14;;;6;;
75342;SDS011;63936;51.006;13.764;2024-03-23T07:30:04;13;;;6;;
75342;SDS011;63936;51.006;13.764;2024-03-23T07:32:01;11;;;5;;
75342;SDS011;63936;51.006;13.764;2024-03-23T07:34:01;11;;;5;;
75342;SDS011;63936;51.006;13.764;2024-03-23T07:36:01;12;;;5;;
75342;SDS011;63936;51.006;13.764;2024-03-23T07:38:01;11;;;6;;
75342;SDS011;63936;51.006;13.764;2024-03-23T07:40:03;11;;;6;;
75342;SDS011;63936;51.006;13.764;2024-03-23T07:42:01;11;;;5;;
75342;SDS011;63936;51.006;13.764;2024-03-23T07:44:01;15;;;7;;
75342;SDS011;63936;51.006;13.764;2024-03-23T07:46:02;10;;;5;;
75342;SDS011;63936;51.006;13.764;2024-03-23T07:48:02;9;;;4;;
75342;SDS011;63936;51.006;13.764;2024-03-23T07:50:04;12;;;6;;
75342;SDS011;63936;51.006;13.764;2024-03-23T07:52:01;11;;;6;;
75342;SDS011;63936;51.006;13.764;2024-03-23T07:54:01;12;;;5;;
75342;SDS011;63936;51.006;13.764;2024-03-23T07:56:03;14;;;6;;
75342;SDS011;63936;51.006;13.764;2024-03-23T07:58:02;11;;;6;;
75342;SDS011;63936;51.006;13.764;2024-03-23T08:00:03;10;;;5;;
75342;SDS011;63936;51.006;13.764;2024-03-23T08:02:01;13;;;6;;
75342;SDS011;63936;51.006;13.764;2024-03-23T08:04:01;13;;;6;;
75342;SDS011;63936;51.006;13.764;2024-03-23T08:06:09;14;;;5;;
75342;SDS011;63936;51.006;13.764;2024-03-23T08:08:01;12;;;5;;
75342;SDS011;63936;51.006;13.764;2024-03-23T08:10:08;11;;;5;;
75342;SDS011;63936;51.006;13.764;2024-03-23T08:12:01;12;;;5;;
75342;SDS011;63936;51.006;13.764;2024-03-23T08:14:01;11;;;5;;
75342;SDS011;63936;51.006;13.764;2024-03-23T08:16:02;11;;;5;;
75342;SDS011;63936;51.006;13.764;2024-03-23T08:18:01;13;;;6;;
75342;SDS011;63936;51.006;13.764;2024-03-23T08:20:04;16;;;7;;
75342;SDS011;63936;51.006;13.764;2024-03-23T08:22:02;13;;;6;;
75342;SDS011;63936;51.006;13.764;2024-03-23T08:24:02;11;;;5;;
75342;SDS011;63936;51.006;13.764;2024-03-23T08:26:01;10;;;5;;
75342;SDS011;63936;51.006;13.764;2024-03-23T08:28:01;11;;;6;;
75342;SDS011;63936;51.006;13.764;2024-03-23T08:30:01;12;;;6;;
75342;SDS011;63936;51.006;13.764;2024-03-23T08:32:01;18;;;9;;
75342;SDS011;63936;51.006;13.764;2024-03-23T08:34:01;17;;;9;;
75342;SDS011;63936;51.006;13.764;2024-03-23T08:36:02;15;;;7;;
75342;SDS011;63936;51.006;13.764;2024-03-23T08:38:01;15;;;7;;
75342;SDS011;63936;51.006;13.764;2024-03-23T08:40:02;17;;;9;;
75342;SDS011;63936;51.006;13.764;2024-03-23T08:42:01;16;;;9;;
75342;SDS011;63936;51.006;13.764;2024-03-23T08:44:01;16;;;9;;
75342;SDS011;63936;51.006;13.764;2024-03-23T08:46:03;15;;;9;;
75342;SDS011;63936;51.006;13.764;2024-03-23T08:48:01;15;;;9;;
75342;SDS011;63936;51.006;13.764;2024-03-23T08:50:01;17;;;11;;
75342;SDS011;63936;51.006;13.764;2024-03-23T08:52:01;17;;;11;;
75342;SDS011;63936;51.006;13.764;2024-03-23T08:54:01;17;;;10;;
75342;SDS011;63936;51.006;13.764;2024-03-23T08:56:02;15;;;9;;
75342;SDS011;63936;51.006;13.764;2024-03-23T08:58:01;16;;;9;;
75342;SDS011;63936;51.006;13.764;2024-03-23T09:00:02;16;;;10;;
75342;SDS011;63936;51.006;13.764;2024-03-23T09:02:02;18;;;11;;
75342;SDS011;63936;51.006;13.764;2024-03-23T09:04:02;16;;;10;;
75342;SDS011;63936;51.006;13.764;2024-03-23T09:06:02;15;;;7;;
75342;SDS011;63936;51.006;13.764;2024-03-23T09:08:02;17;;;8;;
75342;SDS011;63936;51.006;13.764;2024-03-23T09:10:01;13;;;8;;
75342;SDS011;63936;51.006;13.764;2024-03-23T09:12:01;11;;;5;;
75342;SDS011;63936;51.006;13.764;2024-03-23T09:14:01;14;;;8;;
75342;SDS011;63936;51.006;13.764;2024-03-23T09:16:01;18;;;11;;
75342;SDS011;63936;51.006;13.764;2024-03-23T09:18:01;17;;;11;;
75342;SDS011;63936;51.006;13.764;2024-03-23T09:20:01;16;;;10;;
75342;SDS011;63936;51.006;13.764;2024-03-23T09:22:01;16;;;10;;
75342;SDS011;63936;51.006;13.764;2024-03-23T09:24:01;14;;;9;;
75342;SDS011;63936;51.006;13.764;2024-03-23T09:26:02;14;;;8;;
75342;SDS011;63936;51.006;13.764;2024-03-23T09:28:01;11;;;7;;
75342;SDS011;63936;51.006;13.764;2024-03-23T09:30:02;11;;;7;;
75342;SDS011;63936;51.006;13.764;2024-03-23T09:32:02;11;;;7;;
75342;SDS011;63936;51.006;13.764;2024-03-23T09:34:01;11;;;7;;
75342;SDS011;63936;51.006;13.764;2024-03-23T09:36:03;11;;;7;;
75342;SDS011;63936;51.006;13.764;2024-03-23T09:38:02;11;;;7;;
75342;SDS011;63936;51.006;13.764;2024-03-23T09:40:01;10;;;6;;
75342;SDS011;63936;51.006;13.764;2024-03-23T09:42:01;10;;;6;;
75342;SDS011;63936;51.006;13.764;2024-03-23T09:44:01;10;;;7;;
75342;SDS011;63936;51.006;13.764;2024-03-23T09:46:01;11;;;7;;
75342;SDS011;63936;51.006;13.764;2024-03-23T09:48:01;12;;;7;;
75342;SDS011;63936;51.006;13.764;2024-03-23T09:50:02;12;;;7;;
75342;SDS011;63936;51.006;13.764;2024-03-23T09:52:01;12;;;7;;
75342;SDS011;63936;51.006;13.764;2024-03-23T09:54:01;12;;;7;;
75342;SDS011;63936;51.006;13.764;2024-03-23T09:56:01;11;;;6;;
75342;SDS011;63936;51.006;13.764;2024-03-23T09:58:01;11;;;7;;
75342;SDS011;63936;51.006;13.764;2024-03-23T10:00:03;13;;;8;;
75342;SDS011;63936;51.006;13.764;2024-03-23T10:02:02;12;;;7;;
75342;SDS011;63936;51.006;13.764;2024-03-23T10:04:02;13;;;7;;
75342;SDS011;63936;51.006;13.764;2024-03-23T10:06:01;10;;;6;;
75342;SDS011;63936;51.006;13.764;2024-03-23T10:08:01;7;;;4;;
75342;SDS011;63936;51.006;13.764;2024-03-23T10:10:08;8;;;3;;
75342;SDS011;63936;51.006;13.764;2024-03-23T10:12:07;5;;;2;;
75342;SDS011;63936;51.006;13.764;2024-03-23T10:14:01;4;;;2;;
75342;SDS011;63936;51.006;13.764;2024-03-23T10:16:01;4;;;1;;
75342;SDS011;63936;51.006;13.764;2024-03-23T10:18:02;4;;;1;;
75342;SDS011;63936;51.006;13.764;2024-03-23T10:20:02;5;;;2;;
75342;SDS011;63936;51.006;13.764;2024-03-23T10:22:02;4;;;1;;
75342;SDS011;63936;51.006;13.764;2024-03-23T10:24:07;4;;;1;;
75342;SDS011;63936;51.006;13.764;2024-03-23T10:26:12;4;;;1;;
75342;SDS011;63936;51.006;13.764;2024-03-23T10:28:01;3;;;1;;
75342;SDS011;63936;51.006;13.764;2024-03-23T10:30:07;3;;;1;;
75342;SDS011;63936;51.006;13.764;2024-03-23T10:32:08;3;;;1;;
75342;SDS011;63936;51.006;13.764;2024-03-23T10:34:02;3;;;1;;
75342;SDS011;63936;51.006;13.764;2024-03-23T10:36:01;3;;;1;;
75342;SDS011;63936;51.006;13.764;2024-03-23T10:38:02;3;;;1;;
75342;SDS011;63936;51.006;13.764;2024-03-23T10:40:02;3;;;1;;
75342;SDS011;63936;51.006;13.764;2024-03-23T10:42:02;3;;;1;;
75342;SDS011;63936;51.006;13.764;2024-03-23T10:44:01;3;;;1;;
75342;SDS011;63936;51.006;13.764;2024-03-23T10:46:02;3;;;1;;
75342;SDS011;63936;51.006;13.764;2024-03-23T10:48:02;3;;;1;;
75342;SDS011;63936;51.006;13.764;2024-03-23T10:50:02;3;;;1;;
75342;SDS011;63936;51.006;13.764;2024-03-23T10:52:02;4;;;1;;
75342;SDS011;63936;51.006;13.764;2024-03-23T10:54:02;3;;;1;;
75342;SDS011;63936;51.006;13.764;2024-03-23T10:56:01;3;;;1;;
75342;SDS011;63936;51.006;13.764;2024-03-23T10:58:01;3;;;1;;
75342;SDS011;63936;51.006;13.764;2024-03-23T11:00:02;3;;;1;;
75342;SDS011;63936;51.006;13.764;2024-03-23T11:02:02;3;;;1;;
75342;SDS011;63936;51.006;13.764;2024-03-23T11:04:02;4;;;1;;
75342;SDS011;63936;51.006;13.764;2024-03-23T11:06:01;3;;;1;;
75342;SDS011;63936;51.006;13.764;2024-03-23T11:08:01;3;;;1;;
75342;SDS011;63936;51.006;13.764;2024-03-23T11:10:01;3;;;1;;
75342;SDS011;63936;51.006;13.764;2024-03-23T11:12:05;3;;;1;;
75342;SDS011;63936;51.006;13.764;2024-03-23T11:14:01;3;;;1;;
75342;SDS011;63936;51.006;13.764;2024-03-23T11:16:11;4;;;1;;
75342;SDS011;63936;51.006;13.764;2024-03-23T11:18:02;3;;;1;;
75342;SDS011;63936;51.006;13.764;2024-03-23T11:20:02;3;;;1;;
75342;SDS011;63936;51.006;13.764;2024-03-23T11:22:02;4;;;1;;
75342;SDS011;63936;51.006;13.764;2024-03-23T11:24:16;4;;;1;;
75342;SDS011;63936;51.006;13.764;2024-03-23T11:26:02;3;;;1;;
75342;SDS011;63936;51.006;13.764;2024-03-23T11:28:09;3;;;1;;
75342;SDS011;63936;51.006;13.764;2024-03-23T11:30:09;3;;;1;;
75342;SDS011;63936;51.006;13.764;2024-03-23T11:32:01;3;;;1;;
75342;SDS011;63936;51.006;13.764;2024-03-23T11:34:02;3;;;1;;
75342;SDS011;63936;51.006;13.764;2024-03-23T11:36:01;4;;;1;;
75342;SDS011;63936;51.006;13.764;2024-03-23T11:38:02;3;;;1;;
75342;SDS011;63936;51.006;13.764;2024-03-23T11:40:16;3;;;1;;
75342;SDS011;63936;51.006;13.764;2024-03-23T11:42:01;3;;;1;;
75342;SDS011;63936;51.006;13.764;2024-03-23T11:44:13;4;;;1;;
75342;SDS011;63936;51.006;13.764;2024-03-23T11:46:01;3;;;1;;
75342;SDS011;63936;51.006;13.764;2024-03-23T11:48:05;3;;;1;;
75342;SDS011;63936;51.006;13.764;2024-03-23T11:50:02;3;;;1;;
75342;SDS011;63936;51.006;13.764;2024-03-23T11:52:02;3;;;1;;
75342;SDS011;63936;51.006;13.764;2024-03-23T11:54:07;3;;;1;;
75342;SDS011;63936;51.006;13.764;2024-03-23T11:56:02;3;;;1;;
75342;SDS011;63936;51.006;13.764;2024-03-23T11:58:02;6;;;1;;
75342;SDS011;63936;51.006;13.764;2024-03-23T12:00:02;5;;;1;;
75342;SDS011;63936;51.006;13.764;2024-03-23T12:02:05;3;;;1;;
75342;SDS011;63936;51.006;13.764;2024-03-23T12:04:01;4;;;1;;
75342;SDS011;63936;51.006;13.764;2024-03-23T12:06:01;4;;;1;;
75342;SDS011;63936;51.006;13.764;2024-03-23T12:08:15;4;;;1;;
75342;SDS011;63936;51.006;13.764;2024-03-23T12:10:02;4;;;1;;
75342;SDS011;63936;51.006;13.764;2024-03-23T12:12:05;3;;;1;;
75342;SDS011;63936;51.006;13.764;2024-03-23T12:14:01;4;;;1;;
75342;SDS011;63936;51.006;13.764;2024-03-23T12:16:09;4;;;1;;
75342;SDS011;63936;51.006;13.764;2024-03-23T12:18:08;4;;;1;;
75342;SDS011;63936;51.006;13.764;2024-03-23T12:20:02;4;;;1;;
75342;SDS011;63936;51.006;13.764;2024-03-23T12:22:02;3;;;1;;
75342;SDS011;63936;51.006;13.764;2024-03-23T12:24:02;3;;;1;;
75342;SDS011;63936;51.006;13.764;2024-03-23T12:26:02;4;;;1;;
75342;SDS011;63936;51.006;13.764;2024-03-23T12:28:02;4;;;1;;
75342;SDS011;63936;51.006;13.764;2024-03-23T12:30:01;4;;;1;;
75342;SDS011;63936;51.006;13.764;2024-03-23T12:32:01;4;;;1;;
75342;SDS011;63936;51.006;13.764;2024-03-23T12:34:01;4;;;2;;
75342;SDS011;63936;51.006;13.764;2024-03-23T12:36:01;4;;;2;;
75342;SDS011;63936;51.006;13.764;2024-03-23T12:38:01;4;;;1;;
75342;SDS011;63936;51.006;13.764;2024-03-23T12:40:02;4;;;1;;
75342;SDS011;63936;51.006;13.764;2024-03-23T12:42:02;4;;;2;;
75342;SDS011;63936;51.006;13.764;2024-03-23T12:44:01;4;;;2;;
75342;SDS011;63936;51.006;13.764;2024-03-23T12:46:02;4;;;2;;
75342;SDS011;63936;51.006;13.764;2024-03-23T12:48:02;4;;;2;;
75342;SDS011;63936;51.006;13.764;2024-03-23T12:50:02;4;;;1;;
75342;SDS011;63936;51.006;13.764;2024-03-23T12:52:01;4;;;1;;
75342;SDS011;63936;51.006;13.764;2024-03-23T12:54:01;4;;;1;;
75342;SDS011;63936;51.006;13.764;2024-03-23T12:56:01;4;;;1;;
75342;SDS011;63936;51.006;13.764;2024-03-23T12:58:01;4;;;1;;
75342;SDS011;63936;51.006;13.764;2024-03-23T13:00:02;4;;;1;;
75342;SDS011;63936;51.006;13.764;2024-03-23T13:02:01;4;;;2;;
75342;SDS011;63936;51.006;13.764;2024-03-23T13:04:01;4;;;2;;
75342;SDS011;63936;51.006;13.764;2024-03-23T13:06:01;4;;;2;;
75342;SDS011;63936;51.006;13.764;2024-03-23T13:08:01;4;;;1;;
75342;SDS011;63936;51.006;13.764;2024-03-23T13:10:02;4;;;1;;
75342;SDS011;63936;51.006;13.764;2024-03-23T13:12:01;4;;;2;;
75342;SDS011;63936;51.006;13.764;2024-03-23T13:14:01;4;;;2;;
75342;SDS011;63936;51.006;13.764;2024-03-23T13:16:02;4;;;1;;
75342;SDS011;63936;51.006;13.764;2024-03-23T13:18:02;4;;;1;;
75342;SDS011;63936;51.006;13.764;2024-03-23T13:20:02;4;;;1;;
75342;SDS011;63936;51.006;13.764;2024-03-23T13:22:02;3;;;1;;
75342;SDS011;63936;51.006;13.764;2024-03-23T13:24:02;4;;;1;;
75342;SDS011;63936;51.006;13.764;2024-03-23T13:26:01;4;;;1;;
75342;SDS011;63936;51.006;13.764;2024-03-23T13:28:01;4;;;2;;
75342;SDS011;63936;51.006;13.764;2024-03-23T13:30:01;5;;;2;;
75342;SDS011;63936;51.006;13.764;2024-03-23T13:32:01;4;;;2;;
75342;SDS011;63936;51.006;13.764;2024-03-23T13:34:01;4;;;1;;
75342;SDS011;63936;51.006;13.764;2024-03-23T13:36:01;3;;;1;;
75342;SDS011;63936;51.006;13.764;2024-03-23T13:38:01;4;;;1;;
75342;SDS011;63936;51.006;13.764;2024-03-23T13:40:02;4;;;2;;
75342;SDS011;63936;51.006;13.764;2024-03-23T13:42:01;4;;;1;;
75342;SDS011;63936;51.006;13.764;2024-03-23T13:44:01;5;;;1;;
75342;SDS011;63936;51.006;13.764;2024-03-23T13:46:02;4;;;1;;
75342;SDS011;63936;51.006;13.764;2024-03-23T13:48:02;4;;;1;;